createdAt,value
2023-04-30T00:00:11.166Z,115.60
2023-04-30T00:02:38.506Z,115.70
2023-04-30T00:05:06.449Z,116.10
2023-04-30T00:07:33.870Z,115.63
2023-04-30T00:10:01.401Z,115.17
2023-04-30T00:12:28.952Z,115.87
2023-04-30T00:14:56.284Z,115.50
2023-04-30T00:17:26.476Z,115.83
2023-04-30T00:19:53.895Z,115.40
2023-04-30T00:22:21.177Z,116.20
2023-04-30T00:24:48.553Z,116.57
2023-04-30T00:37:30.056Z,116.57
2023-04-30T00:43:57.214Z,116.27
2023-04-30T00:46:50.872Z,116.47
2023-04-30T00:53:10.409Z,116.20
2023-04-30T00:56:04.369Z,116.20
2023-04-30T00:58:43.793Z,114.97
2023-04-30T01:01:33.073Z,115.87
2023-04-30T01:14:21.216Z,116.17
2023-04-30T01:17:39.545Z,116.40
2023-04-30T01:20:11.307Z,116.37
2023-04-30T01:22:55.960Z,117.17
2023-04-30T01:25:53.641Z,115.80
2023-04-30T01:28:23.519Z,116.10
2023-04-30T01:30:51.264Z,116.20
2023-04-30T01:33:18.978Z,115.17
2023-04-30T01:36:24.670Z,115.07
2023-04-30T01:39:41.037Z,116.20
2023-04-30T01:42:24.449Z,116.00
2023-04-30T01:45:35.260Z,116.10
2023-04-30T01:48:42.929Z,116.73
2023-04-30T01:51:27.505Z,114.40
2023-04-30T01:54:06.452Z,115.90
2023-04-30T01:56:46.177Z,116.70
2023-04-30T01:59:15.928Z,116.67
2023-04-30T02:01:43.048Z,115.57
2023-04-30T02:04:10.720Z,116.30
2023-04-30T02:06:37.797Z,116.33
2023-04-30T02:09:06.877Z,116.57
2023-04-30T02:11:33.890Z,117.07
2023-04-30T02:14:01.109Z,116.37
2023-04-30T02:16:28.222Z,115.97
2023-04-30T02:18:55.351Z,114.50
2023-04-30T02:21:22.363Z,116.60
2023-04-30T02:23:54.119Z,116.57
2023-04-30T02:26:49.475Z,116.93
2023-04-30T02:40:07.766Z,116.40
2023-04-30T02:49:44.942Z,116.87
2023-04-30T02:52:42.993Z,115.90
2023-04-30T02:55:33.271Z,116.97
2023-04-30T03:01:53.525Z,116.67
2023-04-30T03:07:37.573Z,116.20
2023-04-30T03:10:20.435Z,116.67
2023-04-30T03:13:32.585Z,116.47
2023-04-30T03:19:35.470Z,114.90
2023-04-30T03:22:30.987Z,116.30
2023-04-30T03:30:36.307Z,115.77
2023-04-30T03:32:20.610Z,115.03
2023-04-30T03:35:21.282Z,116.47
2023-04-30T03:41:20.971Z,116.03
2023-04-30T03:50:46.690Z,115.57
2023-04-30T03:53:16.214Z,116.07
2023-04-30T03:55:43.828Z,116.83
2023-04-30T03:58:14.733Z,115.77
2023-04-30T04:01:00.852Z,116.77
2023-04-30T04:03:28.012Z,116.17
2023-04-30T04:05:55.015Z,115.87
2023-04-30T04:08:22.125Z,116.10
2023-04-30T04:10:49.189Z,115.33
2023-04-30T04:13:17.508Z,116.30
2023-04-30T04:15:45.155Z,116.70
2023-04-30T04:18:12.628Z,116.90
2023-04-30T04:20:40.935Z,116.87
2023-04-30T04:23:08.266Z,116.70
2023-04-30T04:25:35.395Z,115.87
2023-04-30T04:28:02.545Z,115.73
2023-04-30T04:30:29.690Z,116.90
2023-04-30T04:32:58.496Z,116.37
2023-04-30T04:35:27.703Z,116.67
2023-04-30T04:37:57.569Z,117.20
2023-04-30T04:40:25.134Z,115.87
2023-04-30T04:42:52.391Z,116.93
2023-04-30T04:45:22.598Z,116.33
2023-04-30T04:47:50.813Z,116.97
2023-04-30T04:50:18.535Z,115.80
2023-04-30T04:52:45.640Z,116.10
2023-04-30T04:55:13.908Z,115.73
2023-04-30T04:57:42.382Z,116.37
2023-04-30T05:00:10.575Z,115.60
2023-04-30T05:02:38.097Z,114.77
2023-04-30T05:05:07.858Z,116.00
2023-04-30T05:07:35.117Z,116.00
2023-04-30T05:10:03.357Z,116.40
2023-04-30T05:12:31.328Z,116.03
2023-04-30T05:14:58.341Z,114.57
2023-04-30T05:17:26.292Z,115.87
2023-04-30T05:19:53.852Z,115.97
2023-04-30T05:22:21.680Z,114.57
2023-04-30T05:24:48.666Z,115.53
2023-04-30T05:27:16.636Z,115.60
2023-04-30T05:29:43.627Z,115.70
2023-04-30T05:32:10.969Z,115.67
2023-04-30T05:34:38.462Z,114.90
2023-04-30T05:37:05.932Z,115.67
2023-04-30T05:39:33.445Z,116.17
2023-04-30T05:42:02.386Z,115.77
2023-04-30T05:44:30.334Z,115.50
2023-04-30T05:46:57.568Z,115.47
2023-04-30T05:49:25.184Z,115.20
2023-04-30T05:51:52.609Z,114.93
2023-04-30T05:54:19.547Z,114.60
2023-04-30T05:56:46.623Z,115.90
2023-04-30T05:59:14.103Z,115.27
2023-04-30T06:01:41.712Z,114.67
2023-04-30T06:04:09.262Z,114.70
2023-04-30T06:06:36.662Z,114.80
2023-04-30T06:09:04.189Z,115.17
2023-04-30T06:11:32.128Z,115.17
2023-04-30T06:13:59.676Z,115.27
2023-04-30T06:16:27.393Z,115.47
2023-04-30T06:18:54.363Z,115.97
2023-04-30T06:21:25.744Z,115.10
2023-04-30T06:23:53.430Z,115.67
2023-04-30T06:26:20.757Z,114.93
2023-04-30T06:28:48.322Z,115.47
2023-04-30T06:31:15.799Z,115.67
2023-04-30T06:33:43.540Z,115.57
2023-04-30T06:36:11.604Z,114.53
2023-04-30T06:38:38.765Z,114.60
2023-04-30T06:41:06.331Z,114.93
2023-04-30T06:43:33.418Z,115.00
2023-04-30T06:46:01.469Z,115.70
2023-04-30T06:48:28.936Z,115.47
2023-04-30T06:50:56.658Z,115.30
2023-04-30T06:53:24.125Z,115.17
2023-04-30T06:55:52.990Z,115.23
2023-04-30T06:58:20.092Z,115.27
2023-04-30T07:00:47.580Z,114.53
2023-04-30T07:03:15.219Z,114.50
2023-04-30T07:05:42.486Z,114.07
2023-04-30T07:08:10.045Z,114.77
2023-04-30T07:10:37.559Z,114.57
2023-04-30T07:13:04.550Z,114.60
2023-04-30T07:15:31.584Z,114.80
2023-04-30T07:17:59.144Z,114.70
2023-04-30T07:20:26.625Z,115.07
2023-04-30T07:22:55.510Z,114.97
2023-04-30T07:25:22.537Z,114.90
2023-04-30T07:27:52.962Z,114.97
2023-04-30T07:30:20.029Z,115.27
2023-04-30T07:32:48.066Z,115.07
2023-04-30T07:35:15.149Z,114.77
2023-04-30T07:37:43.769Z,114.70
2023-04-30T07:40:21.916Z,114.87
2023-04-30T07:42:56.561Z,115.07
2023-04-30T07:45:23.958Z,115.00
2023-04-30T07:47:51.166Z,114.03
2023-04-30T07:50:18.797Z,114.17
2023-04-30T07:52:45.922Z,114.47
2023-04-30T07:55:13.566Z,114.20
2023-04-30T07:57:41.554Z,114.63
2023-04-30T08:00:09.471Z,114.20
2023-04-30T08:03:47.197Z,114.40
2023-04-30T08:06:14.368Z,113.87
2023-04-30T08:08:41.389Z,113.97
2023-04-30T08:11:08.470Z,113.97
2023-04-30T08:13:36.358Z,112.90
2023-04-30T08:16:03.475Z,114.00
2023-04-30T08:18:32.138Z,113.87
2023-04-30T08:21:01.143Z,113.60
2023-04-30T08:23:28.413Z,113.70
2023-04-30T08:25:56.069Z,112.57
2023-04-30T08:28:23.496Z,113.70
2023-04-30T08:30:50.465Z,113.60
2023-04-30T08:33:17.476Z,113.97
2023-04-30T08:35:45.482Z,113.87
2023-04-30T08:38:12.488Z,113.67
2023-04-30T08:40:50.951Z,113.10
2023-04-30T08:43:20.192Z,112.80
2023-04-30T08:45:49.291Z,112.27
2023-04-30T08:48:18.281Z,113.60
2023-04-30T08:50:45.880Z,113.77
2023-04-30T08:53:15.663Z,114.10
2023-04-30T08:55:42.494Z,114.33
2023-04-30T08:58:12.689Z,114.37
2023-04-30T09:00:40.726Z,114.07
2023-04-30T09:03:08.870Z,114.37
2023-04-30T09:05:38.377Z,113.97
2023-04-30T09:08:09.423Z,113.47
2023-04-30T09:10:37.141Z,114.33
2023-04-30T09:13:09.785Z,113.87
2023-04-30T09:15:44.468Z,113.90
2023-04-30T09:18:18.350Z,113.47
2023-04-30T09:21:02.855Z,112.73
2023-04-30T09:23:30.721Z,113.53
2023-04-30T09:25:57.824Z,113.60
2023-04-30T09:28:27.201Z,113.40
2023-04-30T09:30:56.984Z,114.20
2023-04-30T09:33:24.770Z,113.53
2023-04-30T09:35:57.840Z,114.37
2023-04-30T09:38:33.003Z,113.90
2023-04-30T09:41:01.982Z,113.90
2023-04-30T09:43:30.838Z,114.47
2023-04-30T09:46:00.594Z,114.17
2023-04-30T09:48:28.506Z,113.60
2023-04-30T09:50:55.779Z,113.93
2023-04-30T09:53:23.682Z,113.97
2023-04-30T09:55:52.590Z,113.67
2023-04-30T09:58:20.281Z,113.07
2023-04-30T10:00:50.737Z,113.33
2023-04-30T10:03:18.675Z,113.47
2023-04-30T10:05:53.089Z,113.00
2023-04-30T10:08:38.967Z,113.07
2023-04-30T10:11:09.990Z,112.67
2023-04-30T10:13:59.116Z,110.27
2023-04-30T10:16:51.869Z,112.87
2023-04-30T10:19:34.105Z,113.17
2023-04-30T10:22:02.726Z,113.27
2023-04-30T10:24:31.025Z,112.77
2023-04-30T10:26:58.487Z,113.00
2023-04-30T10:29:25.501Z,112.30
2023-04-30T10:31:54.211Z,112.57
2023-04-30T10:34:51.742Z,112.77
2023-04-30T10:37:58.034Z,112.87
2023-04-30T10:40:28.117Z,113.30
2023-04-30T10:42:55.814Z,112.17
2023-04-30T10:45:38.380Z,109.70
2023-04-30T10:48:07.203Z,112.70
2023-04-30T10:50:46.189Z,111.27
2023-04-30T10:53:18.026Z,111.87
2023-04-30T10:56:08.767Z,111.57
2023-04-30T10:58:39.563Z,111.47
2023-04-30T11:01:11.903Z,111.30
2023-04-30T11:03:43.731Z,110.57
2023-04-30T11:06:19.817Z,111.33
2023-04-30T11:08:47.355Z,111.50
2023-04-30T11:11:21.252Z,112.53
2023-04-30T11:14:02.103Z,112.00
2023-04-30T11:16:36.420Z,112.60
2023-04-30T11:19:14.625Z,110.97
2023-04-30T11:22:04.631Z,110.67
2023-04-30T11:25:13.751Z,111.27
2023-04-30T11:27:45.306Z,110.83
2023-04-30T11:30:18.355Z,110.57
2023-04-30T11:32:50.434Z,111.27
2023-04-30T11:35:19.678Z,112.57
2023-04-30T11:37:51.956Z,113.37
2023-04-30T11:40:20.262Z,113.57
2023-04-30T11:42:48.300Z,114.00
2023-04-30T11:45:17.918Z,114.07
2023-04-30T11:47:51.381Z,114.40
2023-04-30T11:50:28.729Z,114.00
2023-04-30T11:52:58.715Z,114.37
2023-04-30T11:55:31.232Z,114.03
2023-04-30T11:57:59.823Z,113.97
2023-04-30T12:00:31.103Z,114.03
2023-04-30T12:03:03.594Z,113.67
2023-04-30T12:05:30.927Z,113.40
2023-04-30T12:08:06.441Z,113.37
2023-04-30T12:10:33.825Z,112.57
2023-04-30T12:13:00.820Z,113.10
2023-04-30T12:15:29.253Z,110.07
2023-04-30T12:18:11.663Z,111.97
2023-04-30T12:20:40.176Z,111.73
2023-04-30T12:23:08.401Z,109.57
2023-04-30T12:25:43.836Z,110.80
2023-04-30T12:28:11.861Z,111.77
2023-04-30T12:30:39.005Z,111.20
2023-04-30T12:33:06.084Z,111.77
2023-04-30T12:35:33.169Z,110.90
2023-04-30T12:38:07.985Z,110.60
2023-04-30T12:40:35.928Z,110.80
2023-04-30T12:43:08.971Z,110.90
2023-04-30T12:45:56.326Z,110.90
2023-04-30T12:48:25.920Z,110.37
2023-04-30T12:51:02.728Z,110.80
2023-04-30T12:53:29.925Z,111.47
2023-04-30T12:56:20.665Z,111.47
2023-04-30T12:58:50.591Z,110.83
2023-04-30T13:01:21.681Z,111.40
2023-04-30T13:03:49.644Z,111.13
2023-04-30T13:06:17.732Z,112.17
2023-04-30T13:08:58.040Z,110.80
2023-04-30T13:11:26.921Z,111.47
2023-04-30T13:13:57.305Z,111.40
2023-04-30T13:16:25.284Z,110.93
2023-04-30T13:18:52.982Z,110.60
2023-04-30T13:21:21.009Z,111.40
2023-04-30T13:23:52.841Z,110.97
2023-04-30T13:26:22.838Z,110.43
2023-04-30T13:28:52.807Z,110.20
2023-04-30T13:31:20.441Z,110.97
2023-04-30T13:33:48.565Z,110.97
2023-04-30T13:36:16.306Z,110.27
2023-04-30T13:38:43.643Z,109.57
2023-04-30T13:41:10.741Z,109.80
2023-04-30T13:43:40.680Z,110.20
2023-04-30T13:46:09.682Z,109.87
2023-04-30T13:48:40.883Z,110.60
2023-04-30T13:51:08.757Z,110.57
2023-04-30T13:53:37.181Z,110.43
2023-04-30T13:56:04.922Z,110.87
2023-04-30T13:58:32.552Z,110.97
2023-04-30T14:00:59.731Z,111.10
2023-04-30T14:03:27.404Z,111.80
2023-04-30T14:05:55.523Z,111.50
2023-04-30T14:08:23.557Z,111.67
2023-04-30T14:10:51.240Z,112.37
2023-04-30T14:13:18.197Z,111.80
2023-04-30T14:15:45.515Z,111.70
2023-04-30T14:18:12.612Z,111.70
2023-04-30T14:20:39.667Z,111.80
2023-04-30T14:23:06.685Z,111.67
2023-04-30T14:25:34.470Z,112.47
2023-04-30T14:28:01.483Z,111.90
2023-04-30T14:30:28.475Z,111.67
2023-04-30T14:32:55.913Z,111.77
2023-04-30T14:35:23.671Z,112.13
2023-04-30T14:37:50.675Z,111.10
2023-04-30T14:40:17.804Z,111.83
2023-04-30T14:42:44.912Z,112.17
2023-04-30T14:45:12.080Z,111.43
2023-04-30T14:47:39.095Z,111.77
2023-04-30T14:50:06.526Z,112.10
2023-04-30T14:52:33.554Z,111.40
2023-04-30T14:55:00.610Z,111.10
2023-04-30T14:57:28.011Z,110.77
2023-04-30T14:59:57.584Z,111.63
2023-04-30T15:02:24.768Z,111.30
2023-04-30T15:04:54.121Z,111.60
2023-04-30T15:07:21.286Z,112.53
2023-04-30T15:09:48.777Z,112.53
2023-04-30T15:12:15.913Z,113.90
2023-04-30T15:14:43.733Z,112.20
2023-04-30T15:17:11.274Z,114.57
2023-04-30T15:19:38.289Z,113.90
2023-04-30T15:22:06.811Z,114.03
2023-04-30T15:24:34.370Z,114.40
2023-04-30T15:27:01.802Z,113.67
2023-04-30T15:29:28.839Z,114.30
2023-04-30T15:31:56.499Z,113.97
2023-04-30T15:34:24.185Z,114.47
2023-04-30T15:36:51.745Z,114.93
2023-04-30T15:39:19.300Z,114.67
2023-04-30T15:41:46.392Z,113.07
2023-04-30T15:44:13.913Z,114.67
2023-04-30T15:46:41.752Z,114.17
2023-04-30T15:49:09.100Z,113.07
2023-04-30T15:51:36.847Z,111.97
2023-04-30T15:54:07.088Z,112.90
2023-04-30T15:56:35.611Z,113.40
2023-04-30T15:59:02.892Z,113.57
2023-04-30T16:01:30.485Z,114.07
2023-04-30T16:03:57.845Z,114.17
2023-04-30T16:06:27.169Z,114.50
2023-04-30T16:08:54.781Z,115.07
2023-04-30T16:11:23.902Z,115.20
2023-04-30T16:13:51.915Z,115.50
2023-04-30T16:16:19.075Z,115.23
2023-04-30T16:18:46.143Z,115.70
2023-04-30T16:21:13.592Z,116.00
2023-04-30T16:23:41.251Z,116.10
2023-04-30T16:26:08.459Z,116.37
2023-04-30T16:28:35.776Z,115.93
2023-04-30T16:31:03.340Z,115.77
2023-04-30T16:33:30.453Z,115.77
2023-04-30T16:35:57.465Z,115.90
2023-04-30T16:38:24.472Z,115.83
2023-04-30T16:40:51.951Z,116.00
2023-04-30T16:43:18.973Z,116.37
2023-04-30T16:45:46.126Z,116.10
2023-04-30T16:48:13.331Z,116.00
2023-04-30T16:50:41.351Z,115.90
2023-04-30T16:53:10.346Z,116.63
2023-04-30T16:55:38.108Z,116.60
2023-04-30T16:58:05.359Z,116.20
2023-04-30T17:00:32.595Z,116.53
2023-04-30T17:03:00.317Z,116.90
2023-04-30T17:05:27.491Z,116.47
2023-04-30T17:07:54.591Z,116.00
2023-04-30T17:10:21.722Z,116.40
2023-04-30T17:12:48.878Z,116.70
2023-04-30T17:15:18.554Z,116.77
2023-04-30T17:17:48.063Z,116.87
2023-04-30T17:20:15.456Z,116.43
2023-04-30T17:22:42.632Z,117.33
2023-04-30T17:25:11.459Z,116.77
2023-04-30T17:27:39.192Z,116.40
2023-04-30T17:30:08.707Z,116.83
2023-04-30T17:32:36.387Z,116.87
2023-04-30T17:35:07.009Z,115.87
2023-04-30T17:37:35.744Z,116.97
2023-04-30T17:40:05.305Z,116.90
2023-04-30T17:42:33.876Z,116.70
2023-04-30T17:45:00.873Z,116.77
2023-04-30T17:47:28.009Z,116.90
2023-04-30T17:49:56.066Z,117.07
2023-04-30T17:52:24.132Z,116.70
2023-04-30T17:54:51.833Z,116.43
2023-04-30T17:57:19.609Z,116.97
2023-04-30T17:59:47.332Z,117.00
2023-04-30T18:02:15.652Z,116.77
2023-04-30T18:04:43.781Z,117.47
2023-04-30T18:07:11.438Z,117.37
2023-04-30T18:09:38.571Z,117.20
2023-04-30T18:12:06.278Z,117.30
2023-04-30T18:14:33.518Z,117.17
2023-04-30T18:17:00.636Z,117.53
2023-04-30T18:19:30.754Z,117.37
2023-04-30T18:21:57.911Z,117.37
2023-04-30T18:24:28.418Z,117.50
2023-04-30T18:26:55.889Z,116.90
2023-04-30T18:29:23.564Z,117.60
2023-04-30T18:31:50.677Z,117.40
2023-04-30T18:34:18.250Z,118.07
2023-04-30T18:36:45.314Z,117.67
2023-04-30T18:39:12.737Z,117.10
2023-04-30T18:41:40.584Z,117.07
2023-04-30T18:44:11.668Z,117.50
2023-04-30T18:46:39.474Z,117.10
2023-04-30T18:49:06.609Z,117.63
2023-04-30T18:51:33.585Z,117.40
2023-04-30T18:54:06.728Z,117.30
2023-04-30T18:56:36.872Z,117.60
2023-04-30T18:59:04.289Z,117.80
2023-04-30T19:01:32.305Z,117.20
2023-04-30T19:03:59.842Z,117.10
2023-04-30T19:06:28.098Z,117.13
2023-04-30T19:08:55.785Z,117.67
2023-04-30T19:11:22.776Z,117.20
2023-04-30T19:13:49.804Z,117.07
2023-04-30T19:16:17.827Z,117.63
2023-04-30T19:18:45.172Z,117.00
2023-04-30T19:21:14.681Z,117.57
2023-04-30T19:23:42.746Z,117.20
2023-04-30T19:26:10.157Z,117.07
2023-04-30T19:28:37.243Z,117.57
2023-04-30T19:31:06.013Z,117.60
2023-04-30T19:33:39.056Z,117.50
2023-04-30T19:36:06.694Z,116.97
2023-04-30T19:38:37.780Z,117.90
2023-04-30T19:41:07.252Z,117.40
2023-04-30T19:43:36.125Z,117.87
2023-04-30T19:46:07.968Z,117.50
2023-04-30T19:48:39.379Z,117.30
2023-04-30T19:51:06.935Z,117.40
2023-04-30T19:53:34.033Z,117.60
2023-04-30T19:56:02.241Z,117.13
2023-04-30T19:58:32.436Z,117.30
2023-04-30T20:01:00.187Z,117.23
2023-04-30T20:03:30.961Z,117.70
2023-04-30T20:05:58.277Z,117.50
2023-04-30T20:08:25.346Z,117.30
2023-04-30T20:10:52.403Z,117.17
2023-04-30T20:13:20.898Z,117.90
2023-04-30T20:15:49.164Z,117.43
2023-04-30T20:18:16.711Z,116.77
2023-04-30T20:20:45.954Z,117.57
2023-04-30T20:23:17.376Z,117.57
2023-04-30T20:25:46.589Z,117.80
2023-04-30T20:28:16.375Z,117.77
2023-04-30T20:30:44.117Z,117.43
2023-04-30T20:33:14.481Z,116.97
2023-04-30T20:35:48.453Z,117.10
2023-04-30T20:38:21.689Z,117.20
2023-04-30T20:40:51.179Z,116.90
2023-04-30T20:43:19.886Z,117.40
2023-04-30T20:45:47.745Z,117.77
2023-04-30T20:48:15.192Z,117.80
2023-04-30T20:50:42.757Z,117.30
2023-04-30T20:53:11.575Z,117.80
2023-04-30T20:55:39.045Z,117.30
2023-04-30T20:58:07.734Z,115.83
2023-04-30T21:00:34.929Z,117.60
2023-04-30T21:03:02.203Z,117.40
2023-04-30T21:05:30.045Z,117.67
2023-04-30T21:08:01.479Z,117.40
2023-04-30T21:10:35.741Z,116.80
2023-04-30T21:13:05.245Z,117.43
2023-04-30T21:15:35.667Z,117.30
2023-04-30T21:18:03.754Z,117.20
2023-04-30T21:20:32.048Z,117.57
2023-04-30T21:22:59.479Z,116.73
2023-04-30T21:25:26.770Z,117.67
2023-04-30T21:27:53.976Z,116.97
2023-04-30T21:30:24.209Z,117.30
2023-04-30T21:32:58.890Z,116.83
2023-04-30T21:35:29.618Z,117.50
2023-04-30T21:37:57.218Z,117.43
2023-04-30T21:40:24.799Z,117.60
2023-04-30T21:42:53.299Z,117.13
2023-04-30T21:45:21.402Z,117.63
2023-04-30T21:47:48.853Z,117.87
2023-04-30T21:50:16.919Z,117.67
2023-04-30T21:52:44.411Z,117.57
2023-04-30T21:55:12.501Z,117.00
2023-04-30T21:57:39.676Z,117.50
2023-04-30T22:00:08.481Z,116.70
2023-04-30T22:02:37.656Z,117.77
2023-04-30T22:05:06.309Z,117.47
2023-04-30T22:07:33.440Z,117.20
2023-04-30T22:10:02.615Z,117.30
2023-04-30T22:12:29.646Z,117.23
2023-04-30T22:14:57.287Z,116.70
2023-04-30T22:17:24.838Z,117.57
2023-04-30T22:19:51.894Z,117.10
2023-04-30T22:22:19.923Z,117.30
2023-04-30T22:24:47.968Z,116.47
2023-04-30T22:27:15.829Z,116.90
2023-04-30T22:29:43.746Z,115.87
2023-04-30T22:32:11.499Z,116.90
2023-04-30T22:34:41.317Z,117.47
2023-04-30T22:37:12.328Z,117.00
2023-04-30T22:39:39.763Z,117.30
2023-04-30T22:42:08.425Z,117.37
2023-04-30T22:44:36.069Z,117.20
2023-04-30T22:47:03.493Z,117.13
2023-04-30T22:49:32.453Z,116.67
2023-04-30T22:52:00.200Z,117.10
2023-04-30T22:54:27.819Z,117.87
2023-04-30T22:56:55.219Z,116.67
2023-04-30T22:59:22.512Z,117.03
2023-04-30T23:01:49.559Z,116.90
2023-04-30T23:04:16.636Z,117.03
2023-04-30T23:06:44.206Z,116.90
2023-04-30T23:09:12.568Z,116.17
2023-04-30T23:11:40.074Z,116.47
2023-04-30T23:14:08.053Z,117.37
2023-04-30T23:16:35.016Z,116.83
2023-04-30T23:19:02.029Z,117.20
2023-04-30T23:21:29.230Z,116.17
2023-04-30T23:23:58.277Z,117.20
2023-04-30T23:26:25.689Z,115.30
2023-04-30T23:28:55.062Z,117.20
2023-04-30T23:31:23.278Z,117.20
2023-04-30T23:33:50.798Z,114.80
2023-04-30T23:36:18.868Z,117.27
2023-04-30T23:38:46.567Z,117.20
2023-04-30T23:41:14.432Z,116.27
2023-04-30T23:43:41.485Z,116.60
2023-04-30T23:46:09.604Z,117.20
2023-04-30T23:48:36.634Z,117.17
2023-04-30T23:51:05.685Z,117.60
2023-04-30T23:53:33.742Z,115.20
2023-04-30T23:56:01.234Z,117.37
2023-04-30T23:58:31.779Z,117.47
